Time;durP1;ratioP1;P1;durP2;ratioP2;P2;SDS_P1;SDS_P2;PMS_P1;PMS_P2;Temp;Humidity;BMP_temperature;BMP_pressure;BME280_temperature;BME280_humidity;BME280_pressure;Samples;Min_cycle;Max_cycle;Signal;HPM_P1;HPM_P2
2022/07/05 00:02:07;;;;;;;7.93;2.67;;;29.00;71.20;;;;;;5072994;28;20127;-77
2022/07/05 00:04:32;;;;;;;6.07;2.25;;;29.00;71.30;;;;;;5073534;28;20049;-78
2022/07/05 00:09:42;;;;;;;12.50;2.60;;;28.80;71.60;;;;;;5073294;28;20098;-79
2022/07/05 00:12:08;;;;;;;7.40;2.50;;;28.70;72.10;;;;;;5073260;28;20032;-77
2022/07/05 00:14:35;;;;;;;9.50;2.60;;;28.70;72.30;;;;;;5073710;28;20024;-77
2022/07/05 00:17:02;;;;;;;9.02;2.70;;;28.70;72.60;;;;;;5073158;28;20093;-77
2022/07/05 00:19:28;;;;;;;6.28;2.33;;;28.70;72.90;;;;;;5073147;28;20060;-79
2022/07/05 00:21:54;;;;;;;7.65;2.28;;;28.70;73.30;;;;;;5073165;28;20063;-77
2022/07/05 00:24:20;;;;;;;7.05;2.30;;;28.70;73.50;;;;;;5073193;28;20468;-76
2022/07/05 00:26:46;;;;;;;9.65;2.22;;;28.60;73.60;;;;;;5073556;28;20032;-74
2022/07/05 00:29:11;;;;;;;7.68;2.40;;;28.70;73.50;;;;;;5073111;28;20110;-75
2022/07/05 00:31:37;;;;;;;7.32;2.53;;;28.70;73.60;;;;;;5073034;28;20029;-75
2022/07/05 00:34:03;;;;;;;6.97;2.20;;;28.70;73.50;;;;;;5073192;28;20017;-75
2022/07/05 00:36:28;;;;;;;9.88;2.50;;;28.70;73.90;;;;;;5073654;28;20069;-77
2022/07/05 00:38:54;;;;;;;7.40;2.20;;;28.70;74.00;;;;;;5073261;28;20016;-77
2022/07/05 00:41:20;;;;;;;8.55;2.55;;;28.60;74.50;;;;;;5072714;28;20436;-76
2022/07/05 00:44:04;;;;;;;8.73;2.75;;;28.60;74.80;;;;;;5073141;28;20044;-77
2022/07/05 00:46:30;;;;;;;8.25;2.15;;;28.60;74.80;;;;;;5073086;28;20020;-77
2022/07/05 00:48:58;;;;;;;8.10;2.50;;;28.60;74.90;;;;;;5073086;28;20469;-77
2022/07/05 00:51:25;;;;;;;8.60;2.75;;;28.60;75.00;;;;;;5071346;28;20406;-76
2022/07/05 00:53:51;;;;;;;7.32;2.30;;;28.70;75.20;;;;;;5072917;28;20020;-76
2022/07/05 00:56:19;;;;;;;6.55;2.10;;;28.60;75.20;;;;;;5072707;28;20032;-75
2022/07/05 00:58:45;;;;;;;7.43;2.42;;;28.60;75.00;;;;;;5072761;28;20086;-76
2022/07/05 01:01:11;;;;;;;5.40;1.83;;;28.60;75.30;;;;;;5072665;28;20477;-78
2022/07/05 01:03:38;;;;;;;10.07;2.50;;;28.60;75.50;;;;;;5072799;28;20157;-75
2022/07/05 01:06:07;;;;;;;7.22;2.30;;;28.60;75.50;;;;;;5072696;28;20093;-75
2022/07/05 01:08:36;;;;;;;6.70;2.50;;;28.60;75.50;;;;;;5072555;28;20477;-75
2022/07/05 01:11:02;;;;;;;5.53;2.20;;;28.60;76.00;;;;;;5072454;28;20085;-75
2022/07/05 01:13:28;;;;;;;8.23;2.80;;;28.50;76.10;;;;;;5074175;28;20029;-76
2022/07/05 01:15:54;;;;;;;6.68;2.58;;;28.50;76.30;;;;;;5075212;28;20032;-74
2022/07/05 01:18:23;;;;;;;9.77;2.42;;;28.50;76.30;;;;;;5077014;28;20027;-76
2022/07/05 01:20:49;;;;;;;8.48;2.58;;;28.50;76.50;;;;;;5076784;28;20032;-75
2022/07/05 01:23:17;;;;;;;9.50;2.78;;;28.50;76.50;;;;;;5078079;28;20102;-76
2022/07/05 01:25:43;;;;;;;8.90;2.50;;;28.50;76.90;;;;;;5077130;28;20083;-77
2022/07/05 01:28:09;;;;;;;8.38;2.40;;;28.40;76.90;;;;;;5076462;28;20104;-76
2022/07/05 01:30:35;;;;;;;6.55;2.33;;;28.40;77.40;;;;;;5075136;28;20103;-76
2022/07/05 01:33:02;;;;;;;7.43;2.88;;;28.40;77.50;;;;;;5075034;28;20020;-76
2022/07/05 01:35:28;;;;;;;9.90;2.00;;;28.40;78.10;;;;;;5076230;28;20416;-76
2022/07/05 01:37:53;;;;;;;9.85;2.75;;;28.30;77.80;;;;;;5076124;28;20056;-74
2022/07/05 01:40:20;;;;;;;10.63;2.55;;;28.30;78.20;;;;;;5075779;28;20036;-76
2022/07/05 01:42:46;;;;;;;7.85;2.92;;;28.30;78.20;;;;;;5076240;28;20103;-75
2022/07/05 01:45:12;;;;;;;7.10;2.33;;;28.30;78.30;;;;;;5076318;28;20481;-75
2022/07/05 01:47:45;;;;;;;10.02;2.40;;;28.40;78.30;;;;;;5076386;28;20052;-76
2022/07/05 01:50:15;;;;;;;9.10;2.70;;;28.40;78.80;;;;;;5076049;28;20016;-76
2022/07/05 01:52:46;;;;;;;7.72;2.05;;;28.40;79.00;;;;;;5075766;28;20496;-74
2022/07/05 01:55:12;;;;;;;11.52;2.60;;;28.40;79.20;;;;;;5076175;28;20528;-79
2022/07/05 01:57:39;;;;;;;8.45;2.42;;;28.30;79.50;;;;;;5075941;28;20430;-78
2022/07/05 02:00:05;;;;;;;6.05;2.05;;;28.30;79.90;;;;;;5075911;28;20108;-76
2022/07/05 02:02:30;;;;;;;9.88;2.30;;;28.20;79.70;;;;;;5075619;28;20111;-77
2022/07/05 02:04:56;;;;;;;9.40;2.40;;;28.20;80.20;;;;;;5075807;28;20052;-79
2022/07/05 02:07:23;;;;;;;5.90;2.17;;;28.20;80.60;;;;;;5074426;28;20031;-77
2022/07/05 02:09:49;;;;;;;8.25;2.28;;;28.20;79.80;;;;;;5075751;28;20023;-75
2022/07/05 02:12:14;;;;;;;6.80;2.45;;;28.20;80.60;;;;;;5075781;28;20025;-76
2022/07/05 02:14:40;;;;;;;10.25;2.70;;;28.10;80.70;;;;;;5075690;28;20020;-76
2022/07/05 02:17:06;;;;;;;7.60;2.60;;;28.10;81.00;;;;;;5075522;28;20477;-75
2022/07/05 02:19:32;;;;;;;9.55;2.92;;;28.10;81.30;;;;;;5075384;28;20107;-76
2022/07/05 02:21:58;;;;;;;7.28;2.63;;;28.10;81.40;;;;;;5075342;28;20106;-78
2022/07/05 02:24:24;;;;;;;9.75;2.20;;;28.00;82.00;;;;;;5074964;28;20029;-77
2022/07/05 02:26:50;;;;;;;8.63;2.50;;;27.90;82.40;;;;;;5075391;28;20095;-77
2022/07/05 02:29:16;;;;;;;8.75;2.40;;;27.90;82.90;;;;;;5073983;28;20513;-76
2022/07/05 02:31:41;;;;;;;10.52;2.60;;;27.90;82.80;;;;;;5075087;28;20020;-77
2022/07/05 02:34:07;;;;;;;10.25;2.40;;;27.80;83.00;;;;;;5075451;28;20108;-77
2022/07/05 02:36:34;;;;;;;8.98;2.72;;;27.80;83.20;;;;;;5075174;28;20438;-78
2022/07/05 02:39:00;;;;;;;11.00;3.00;;;27.80;83.90;;;;;;5075259;28;20070;-77
2022/07/05 02:41:26;;;;;;;10.70;3.10;;;27.80;83.70;;;;;;5075039;28;20417;-76
2022/07/05 02:43:52;;;;;;;8.55;2.83;;;27.80;83.80;;;;;;5073774;28;20024;-77
2022/07/05 02:46:18;;;;;;;10.52;2.80;;;27.80;83.90;;;;;;5075241;28;20028;-77
2022/07/05 02:48:45;;;;;;;12.40;3.00;;;27.80;84.40;;;;;;5075235;28;20378;-77
2022/07/05 02:51:10;;;;;;;5.53;2.30;;;27.80;84.10;;;;;;5073571;28;20041;-77
2022/07/05 02:53:36;;;;;;;6.50;2.63;;;27.90;84.10;;;;;;5075063;28;20575;-76
2022/07/05 02:56:02;;;;;;;9.93;2.53;;;27.90;83.80;;;;;;5075242;28;20024;-76
2022/07/05 02:58:28;;;;;;;9.75;2.70;;;27.90;83.50;;;;;;5075441;28;20025;-78
2022/07/05 03:00:54;;;;;;;7.75;2.80;;;27.90;83.10;;;;;;5074018;28;20029;-77
2022/07/05 03:03:19;;;;;;;10.77;2.90;;;27.90;83.30;;;;;;5075271;28;20025;-74
2022/07/05 03:05:45;;;;;;;10.73;2.72;;;27.90;83.20;;;;;;5075150;28;20017;-75
2022/07/05 03:08:11;;;;;;;11.30;2.85;;;27.90;83.20;;;;;;5073858;28;20098;-76
2022/07/05 03:10:37;;;;;;;10.93;3.05;;;27.80;83.20;;;;;;5073433;28;20032;-74
2022/07/05 03:13:03;;;;;;;6.05;2.55;;;27.80;83.50;;;;;;5074903;28;20056;-75
2022/07/05 03:15:28;;;;;;;10.32;2.58;;;27.70;83.60;;;;;;5074846;28;20488;-74
2022/07/05 03:17:54;;;;;;;8.55;3.05;;;27.70;83.70;;;;;;5074880;28;20032;-75
2022/07/05 03:20:20;;;;;;;10.57;3.47;;;27.70;83.80;;;;;;5074925;28;20017;-75
2022/07/05 03:22:46;;;;;;;10.25;3.20;;;27.70;83.70;;;;;;5075712;28;20036;-74
2022/07/05 03:25:11;;;;;;;11.40;2.95;;;27.70;84.10;;;;;;5074608;28;20032;-76
2022/07/05 03:27:37;;;;;;;11.45;2.95;;;27.60;84.30;;;;;;5074529;28;20036;-75
2022/07/05 03:30:04;;;;;;;10.80;2.92;;;27.60;84.30;;;;;;5072658;28;20020;-75
2022/07/05 03:32:30;;;;;;;10.43;2.90;;;27.60;84.80;;;;;;5074418;28;20060;-76
2022/07/05 03:34:55;;;;;;;9.38;2.83;;;27.60;85.00;;;;;;5074821;28;20066;-76
2022/07/05 03:37:21;;;;;;;9.27;2.53;;;27.60;85.50;;;;;;5074459;28;20024;-75
2022/07/05 03:39:47;;;;;;;9.40;2.67;;;27.60;85.80;;;;;;5074279;28;20028;-76
2022/07/05 03:42:13;;;;;;;11.25;2.90;;;27.60;86.00;;;;;;5073808;28;20052;-75
2022/07/05 03:44:39;;;;;;;9.85;2.60;;;27.60;86.20;;;;;;5073968;28;20033;-76
2022/07/05 03:47:04;;;;;;;8.77;2.72;;;27.50;86.30;;;;;;5073789;28;20032;-74
2022/07/05 03:49:30;;;;;;;10.02;2.50;;;27.50;86.30;;;;;;5073473;28;20017;-76
2022/07/05 03:58:59;;;;;;;12.13;5.05;;;27.40;87.30;;;;;;5052960;28;20047;-70
2022/07/05 04:01:25;;;;;;;8.25;3.65;;;27.40;86.60;;;;;;5053456;28;20041;-72
2022/07/05 04:03:51;;;;;;;11.15;3.78;;;27.50;86.90;;;;;;5053774;28;20044;-71
2022/07/05 04:06:17;;;;;;;9.63;3.30;;;27.50;86.90;;;;;;5053433;28;20071;-72
2022/07/05 04:08:43;;;;;;;10.13;3.67;;;27.50;86.60;;;;;;5053485;28;20419;-71
2022/07/05 04:11:10;;;;;;;12.70;3.67;;;27.50;86.50;;;;;;5053645;28;20057;-69
2022/07/05 04:13:35;;;;;;;23.17;5.03;;;27.50;86.20;;;;;;5053640;28;20053;-71
2022/07/05 04:16:01;;;;;;;18.25;4.28;;;27.60;86.20;;;;;;5053564;28;20374;-72
2022/07/05 04:18:27;;;;;;;17.98;4.22;;;27.60;85.90;;;;;;5068886;28;20111;-69
2022/07/05 04:20:53;;;;;;;12.13;4.63;;;27.70;85.50;;;;;;5053405;28;20041;-70
2022/07/05 04:23:18;;;;;;;20.42;4.72;;;27.70;85.10;;;;;;5053512;28;20461;-71
2022/07/05 04:25:44;;;;;;;8.73;3.40;;;27.70;84.70;;;;;;5053332;28;20063;-71
2022/07/05 04:28:10;;;;;;;12.38;4.10;;;27.70;84.70;;;;;;5053485;28;20032;-70
2022/07/05 04:30:35;;;;;;;11.30;3.53;;;27.80;84.30;;;;;;5053375;28;20032;-70
2022/07/05 04:33:01;;;;;;;8.63;2.83;;;27.80;83.90;;;;;;5053425;28;20073;-71
2022/07/05 04:35:27;;;;;;;8.90;3.40;;;27.80;83.10;;;;;;5053693;28;20028;-73
2022/07/05 04:37:53;;;;;;;13.48;3.78;;;27.80;82.50;;;;;;5051814;28;20028;-73
2022/07/05 04:40:18;;;;;;;7.10;3.05;;;27.90;81.80;;;;;;5053211;28;20021;-71
2022/07/05 04:42:44;;;;;;;11.48;4.28;;;27.90;81.30;;;;;;5052998;28;20389;-71
2022/07/05 04:45:10;;;;;;;13.23;3.42;;;27.90;80.90;;;;;;5052957;28;20075;-71
2022/07/05 04:47:36;;;;;;;12.27;4.68;;;27.90;79.80;;;;;;5052466;28;20057;-71
2022/07/05 04:50:03;;;;;;;8.45;3.78;;;27.90;79.20;;;;;;5054665;28;20449;-70
2022/07/05 04:52:28;;;;;;;12.70;4.13;;;27.90;78.50;;;;;;5055661;28;20028;-70
2022/07/05 04:54:54;;;;;;;12.55;4.68;;;27.90;78.30;;;;;;5053132;28;20029;-71
2022/07/05 04:57:20;;;;;;;12.23;3.58;;;28.00;77.70;;;;;;5053160;28;20013;-71
2022/07/05 04:59:46;;;;;;;11.02;4.20;;;28.00;77.20;;;;;;5053097;28;20119;-69
2022/07/05 05:02:12;;;;;;;8.30;3.53;;;28.10;77.00;;;;;;5052819;28;20048;-72
2022/07/05 05:04:37;;;;;;;9.43;3.60;;;28.10;76.40;;;;;;5052781;28;20024;-69
2022/07/05 05:07:03;;;;;;;12.30;4.13;;;28.20;75.80;;;;;;5053098;28;20022;-72
2022/07/05 05:09:29;;;;;;;11.25;4.15;;;28.20;74.80;;;;;;5053085;28;20032;-70
2022/07/05 05:11:55;;;;;;;14.77;4.22;;;28.30;74.80;;;;;;5052851;28;20401;-70
2022/07/05 05:14:21;;;;;;;10.68;3.92;;;28.40;74.50;;;;;;5052278;28;20033;-70
2022/07/05 05:16:46;;;;;;;14.30;3.90;;;28.40;74.00;;;;;;5052725;28;20021;-70
2022/07/05 05:19:12;;;;;;;12.30;4.18;;;28.50;73.80;;;;;;5052813;28;20036;-69
2022/07/05 05:21:38;;;;;;;14.40;4.07;;;28.60;73.50;;;;;;5052737;28;20041;-70
2022/07/05 05:24:04;;;;;;;9.93;3.65;;;28.70;73.00;;;;;;5052848;28;20031;-69
2022/07/05 05:26:29;;;;;;;11.80;4.63;;;28.80;72.20;;;;;;5052383;28;20408;-69
2022/07/05 05:28:55;;;;;;;16.20;3.85;;;29.00;71.20;;;;;;5052815;28;20044;-69
2022/07/05 05:31:21;;;;;;;12.75;4.10;;;29.20;70.50;;;;;;5052826;28;20036;-71
2022/07/05 05:33:46;;;;;;;12.57;4.63;;;29.40;69.40;;;;;;5052331;28;20094;-69
2022/07/05 05:36:12;;;;;;;13.90;4.55;;;29.70;67.90;;;;;;5052311;28;20049;-71
2022/07/05 05:38:38;;;;;;;11.10;4.10;;;29.90;67.00;;;;;;5052368;28;20400;-70
2022/07/05 05:41:04;;;;;;;11.48;4.18;;;30.10;66.10;;;;;;5052595;28;20043;-69
2022/07/05 05:43:30;;;;;;;11.70;4.55;;;30.30;65.60;;;;;;5054828;28;20063;-70
2022/07/05 05:45:56;;;;;;;10.38;4.43;;;30.50;62.90;;;;;;5052258;28;20498;-69
2022/07/05 05:48:22;;;;;;;10.90;3.80;;;30.70;62.10;;;;;;5052521;28;20127;-71
2022/07/05 05:50:48;;;;;;;9.93;4.30;;;30.90;60.60;;;;;;5052481;28;20469;-70
2022/07/05 05:53:14;;;;;;;20.23;5.18;;;31.10;59.40;;;;;;5052535;28;20047;-69
2022/07/05 05:55:41;;;;;;;14.00;4.25;;;31.30;59.00;;;;;;5059034;28;20074;-70
2022/07/05 05:58:26;;;;;;;12.73;4.05;;;31.50;57.90;;;;;;5072203;28;20148;-72
2022/07/05 06:00:52;;;;;;;14.43;4.10;;;31.60;57.50;;;;;;5073765;28;20032;-71
2022/07/05 06:03:27;;;;;;;11.98;4.38;;;31.80;56.60;;;;;;5075653;28;20028;-75
2022/07/05 06:05:53;;;;;;;15.98;4.18;;;32.00;56.20;;;;;;5075887;28;20372;-72
2022/07/05 06:08:19;;;;;;;17.42;4.35;;;32.20;55.70;;;;;;5058099;28;20033;-73
2022/07/05 06:10:45;;;;;;;20.20;4.32;;;32.40;55.30;;;;;;5075477;28;20541;-72
2022/07/05 06:13:13;;;;;;;13.15;4.22;;;32.60;54.70;;;;;;5075490;28;20048;-71
2022/07/05 06:15:40;;;;;;;17.08;4.60;;;32.80;54.40;;;;;;5075691;28;20059;-74
2022/07/05 06:18:10;;;;;;;16.98;4.95;;;33.00;54.40;;;;;;5069553;28;20107;-73
2022/07/05 06:20:37;;;;;;;14.43;4.35;;;33.10;53.20;;;;;;5072418;28;20086;-73
2022/07/05 06:23:04;;;;;;;11.35;3.90;;;33.30;53.10;;;;;;5075369;28;20036;-72
2022/07/05 06:25:31;;;;;;;12.90;4.35;;;33.40;52.60;;;;;;5075462;28;20428;-73
2022/07/05 06:28:03;;;;;;;12.88;4.18;;;33.60;52.20;;;;;;5075191;28;20029;-70
2022/07/05 06:30:31;;;;;;;15.35;3.92;;;33.60;51.60;;;;;;5075432;28;20035;-72
2022/07/05 06:32:57;;;;;;;14.60;3.90;;;33.70;51.60;;;;;;5075328;28;20104;-73
2022/07/05 06:35:24;;;;;;;10.90;3.80;;;33.80;51.30;;;;;;5075359;28;20445;-72
2022/07/05 06:37:56;;;;;;;12.43;3.90;;;33.90;51.20;;;;;;5075294;28;20031;-73
2022/07/05 06:40:24;;;;;;;11.18;3.85;;;34.00;50.60;;;;;;5057717;28;20500;-70
2022/07/05 06:42:54;;;;;;;14.18;3.90;;;34.00;51.40;;;;;;5071617;28;20043;-73
2022/07/05 06:45:20;;;;;;;7.60;3.40;;;34.10;50.90;;;;;;5075089;28;20056;-75
2022/07/05 06:47:57;;;;;;;8.18;2.97;;;34.20;51.70;;;;;;5074759;28;20464;-74
2022/07/05 06:50:23;;;;;;;9.45;3.10;;;34.30;52.10;;;;;;5074924;28;20025;-73
2022/07/05 06:52:49;;;;;;;9.60;3.03;;;34.50;52.00;;;;;;5074896;28;20024;-74
2022/07/05 06:55:14;;;;;;;10.60;3.10;;;34.50;51.40;;;;;;5074759;28;20044;-74
2022/07/05 06:57:40;;;;;;;12.25;2.85;;;34.60;50.90;;;;;;5074716;28;20048;-73
2022/07/05 07:00:07;;;;;;;8.70;3.10;;;34.60;50.30;;;;;;5074391;28;20098;-72
2022/07/05 07:02:34;;;;;;;10.35;2.75;;;34.70;49.80;;;;;;5056375;28;20039;-72
2022/07/05 07:04:59;;;;;;;9.32;2.95;;;34.80;49.40;;;;;;5074614;28;20024;-74
2022/07/05 07:10:09;;;;;;;10.85;2.75;;;34.80;49.60;;;;;;5075156;28;20541;-74
2022/07/05 07:12:35;;;;;;;12.77;3.10;;;34.80;51.00;;;;;;5073730;28;20033;-74
2022/07/05 07:15:00;;;;;;;10.80;3.40;;;34.90;51.10;;;;;;5074011;28;20029;-74
2022/07/05 07:17:26;;;;;;;18.05;3.03;;;35.00;50.90;;;;;;5056208;28;20388;-72
2022/07/05 07:19:52;;;;;;;11.13;3.00;;;35.10;50.30;;;;;;5074030;28;20516;-72
2022/07/05 07:22:18;;;;;;;11.20;3.20;;;35.10;49.90;;;;;;5055729;28;20032;-73
2022/07/05 07:24:43;;;;;;;10.57;3.22;;;35.20;49.80;;;;;;5074089;28;20023;-72
2022/07/05 07:27:09;;;;;;;7.47;3.17;;;35.30;48.40;;;;;;5074140;28;20025;-72
2022/07/05 07:29:36;;;;;;;13.55;2.95;;;35.30;47.70;;;;;;5039240;28;20083;-71
2022/07/05 07:32:04;;;;;;;15.27;3.00;;;35.40;47.80;;;;;;5039842;28;20481;-73
2022/07/05 07:34:30;;;;;;;8.95;3.03;;;35.40;47.10;;;;;;5074017;28;20025;-72
2022/07/05 07:36:56;;;;;;;13.63;3.20;;;35.40;46.30;;;;;;5073973;28;20165;-74
2022/07/05 07:39:23;;;;;;;9.80;3.13;;;35.40;45.60;;;;;;5074414;28;20357;-72
2022/07/05 07:41:49;;;;;;;8.55;2.95;;;35.50;45.10;;;;;;5055836;28;20495;-72
2022/07/05 07:44:15;;;;;;;8.30;2.55;;;35.50;45.10;;;;;;5055734;28;20025;-71
2022/07/05 07:46:41;;;;;;;9.93;2.40;;;35.50;44.50;;;;;;5073566;28;20063;-74
2022/07/05 07:49:08;;;;;;;7.95;2.40;;;35.40;44.70;;;;;;5073378;28;20052;-74
2022/07/05 07:51:34;;;;;;;8.25;2.33;;;35.40;44.10;;;;;;5073556;28;20055;-71
2022/07/05 07:54:02;;;;;;;11.65;2.40;;;35.30;43.50;;;;;;5073284;28;20025;-71
2022/07/05 07:56:29;;;;;;;14.07;2.42;;;35.30;44.10;;;;;;5073399;28;20035;-73
2022/07/05 07:58:55;;;;;;;12.15;2.55;;;35.30;44.30;;;;;;5073397;28;20083;-72
2022/07/05 08:01:21;;;;;;;6.00;2.75;;;35.30;44.40;;;;;;5073349;28;20416;-71
2022/07/05 08:03:47;;;;;;;8.50;2.33;;;35.30;44.40;;;;;;5055374;28;20336;-73
2022/07/05 08:06:15;;;;;;;5.18;2.47;;;35.30;44.00;;;;;;5054833;28;20103;-72
2022/07/05 08:08:44;;;;;;;13.02;2.88;;;35.20;43.50;;;;;;5055160;28;20025;-73
2022/07/05 08:11:13;;;;;;;4.50;2.03;;;35.10;43.10;;;;;;5073068;28;20097;-72
2022/07/05 08:13:40;;;;;;;7.10;1.80;;;35.00;42.70;;;;;;5073223;28;20016;-72
2022/07/05 08:16:07;;;;;;;5.57;2.10;;;34.80;41.40;;;;;;5072917;28;20016;-71
2022/07/05 08:21:37;;;;;;;8.30;2.65;;;34.70;42.00;;;;;;5073048;28;20142;-71
2022/07/05 08:24:06;;;;;;;10.88;2.22;;;34.60;41.80;;;;;;5054654;28;20107;-75
2022/07/05 08:26:32;;;;;;;9.93;2.50;;;34.60;41.80;;;;;;5072563;28;20035;-73
2022/07/05 08:28:59;;;;;;;9.35;2.30;;;34.50;40.90;;;;;;5072989;28;20056;-72
2022/07/05 08:31:26;;;;;;;15.52;3.17;;;34.40;40.70;;;;;;5054871;28;20021;-71
2022/07/05 08:33:52;;;;;;;14.15;2.72;;;34.40;41.30;;;;;;5054785;28;20031;-72
2022/07/05 08:36:18;;;;;;;10.80;2.58;;;34.40;41.60;;;;;;5072891;28;20017;-72
2022/07/05 08:38:44;;;;;;;9.13;2.28;;;34.30;41.40;;;;;;5072839;28;20101;-73
2022/07/05 08:41:11;;;;;;;12.35;2.40;;;34.30;40.80;;;;;;5054487;28;20036;-73
2022/07/05 08:43:41;;;;;;;11.15;2.83;;;34.20;40.60;;;;;;5038258;28;20045;-72
2022/07/05 08:46:11;;;;;;;19.08;2.97;;;34.20;40.30;;;;;;5072650;28;20027;-72
2022/07/05 08:48:44;;;;;;;5.97;2.50;;;34.10;40.20;;;;;;5072964;28;20495;-71
2022/07/05 08:51:16;;;;;;;5.72;2.40;;;34.10;40.60;;;;;;5054632;28;20032;-72
2022/07/05 08:53:44;;;;;;;6.93;2.03;;;34.00;40.10;;;;;;5072596;28;20029;-71
2022/07/05 08:56:11;;;;;;;5.25;2.05;;;33.90;39.30;;;;;;5054641;28;20070;-72
2022/07/05 08:58:38;;;;;;;6.40;2.10;;;33.90;39.30;;;;;;5072291;28;20082;-72
2022/07/05 09:01:06;;;;;;;8.52;2.30;;;33.90;38.80;;;;;;5072354;28;20488;-72
2022/07/05 09:03:34;;;;;;;8.63;1.98;;;33.90;38.20;;;;;;5054260;28;20102;-74
2022/07/05 09:06:03;;;;;;;8.75;2.22;;;33.90;37.60;;;;;;5072263;28;20037;-73
2022/07/05 09:08:38;;;;;;;7.28;1.92;;;33.80;37.90;;;;;;5072541;28;20025;-72
2022/07/05 09:11:05;;;;;;;10.45;2.28;;;33.90;37.80;;;;;;5072591;28;20052;-71
2022/07/05 09:13:36;;;;;;;11.38;2.63;;;33.90;37.90;;;;;;5072378;28;20025;-72
2022/07/05 09:16:02;;;;;;;13.38;2.35;;;33.90;37.50;;;;;;5072474;28;20053;-72
2022/07/05 09:18:49;;;;;;;8.50;2.22;;;33.90;36.70;;;;;;5072469;28;20016;-72
2022/07/05 09:21:25;;;;;;;9.70;2.00;;;33.90;37.10;;;;;;5072346;28;20481;-72
2022/07/05 09:23:55;;;;;;;5.03;1.67;;;33.90;36.70;;;;;;5072896;28;20033;-71
2022/07/05 09:26:35;;;;;;;7.22;1.70;;;33.90;36.50;;;;;;5073939;28;20024;-73
2022/07/05 09:29:04;;;;;;;14.68;2.17;;;33.90;36.50;;;;;;5073806;28;20032;-73
2022/07/05 09:31:38;;;;;;;8.32;2.15;;;33.90;37.10;;;;;;5072504;28;20021;-73
2022/07/05 09:34:11;;;;;;;9.18;2.25;;;34.00;36.40;;;;;;5073253;28;20087;-73
2022/07/05 09:36:48;;;;;;;;;;;34.00;36.40;;;;;;5058580;28;20021;-73
2022/07/05 09:39:14;;;;;;;7.88;2.00;;;34.10;36.30;;;;;;5058080;28;19909;-72
2022/07/05 09:41:40;;;;;;;10.07;1.88;;;34.00;36.40;;;;;;5075964;28;20074;-73
2022/07/05 09:44:05;;;;;;;4.38;1.60;;;34.00;35.80;;;;;;5058082;28;20078;-71
2022/07/05 09:46:32;;;;;;;6.65;2.00;;;34.00;35.50;;;;;;5075929;28;20407;-73
2022/07/05 09:48:58;;;;;;;10.07;2.13;;;34.00;35.30;;;;;;5076133;28;20024;-71
2022/07/05 09:51:24;;;;;;;7.40;2.10;;;34.00;35.30;;;;;;5076208;28;20039;-74
2022/07/05 09:53:55;;;;;;;10.55;2.13;;;34.00;35.10;;;;;;5076546;28;20028;-74
2022/07/05 09:56:22;;;;;;;6.32;1.90;;;34.10;35.10;;;;;;5076340;28;20028;-73
2022/07/05 09:58:49;;;;;;;5.75;1.90;;;34.10;35.10;;;;;;5075385;28;20127;-71
2022/07/05 10:01:36;;;;;;;6.25;2.20;;;34.10;34.00;;;;;;5075723;28;20017;-73
2022/07/05 10:04:04;;;;;;;8.20;1.83;;;34.10;34.70;;;;;;5075569;28;20024;-72
2022/07/05 10:06:32;;;;;;;6.43;1.70;;;34.00;33.40;;;;;;5075389;28;20493;-72
2022/07/05 10:08:59;;;;;;;6.65;2.40;;;34.00;34.30;;;;;;5075328;28;20534;-71
2022/07/05 10:11:26;;;;;;;8.05;2.40;;;34.10;34.40;;;;;;5075718;28;20100;-72
2022/07/05 10:13:53;;;;;;;4.97;2.10;;;34.10;34.40;;;;;;5075927;28;20021;-72
2022/07/05 10:16:21;;;;;;;9.50;2.63;;;34.10;33.80;;;;;;5075443;28;20163;-72
2022/07/05 10:18:52;;;;;;;10.43;2.28;;;34.20;34.10;;;;;;5057704;28;20029;-72
2022/07/05 10:21:19;;;;;;;7.55;2.20;;;34.30;33.90;;;;;;5075193;28;20473;-72
2022/07/05 10:23:53;;;;;;;13.25;2.33;;;34.20;34.00;;;;;;5075252;28;20037;-72
2022/07/05 10:26:20;;;;;;;9.77;2.42;;;34.20;35.20;;;;;;5075461;28;20013;-73
2022/07/05 10:28:49;;;;;;;8.73;2.30;;;34.20;34.50;;;;;;5075165;28;20365;-72
2022/07/05 10:31:16;;;;;;;9.40;2.40;;;34.30;33.60;;;;;;5075626;28;20534;-71
2022/07/05 10:33:42;;;;;;;11.30;1.98;;;34.30;33.40;;;;;;5075169;28;20052;-73
2022/07/05 10:36:10;;;;;;;9.50;2.13;;;34.40;33.40;;;;;;5075344;28;20426;-72
2022/07/05 10:38:47;;;;;;;9.05;1.92;;;34.50;33.10;;;;;;5075051;28;20021;-72
2022/07/05 10:41:17;;;;;;;15.63;2.72;;;34.50;32.70;;;;;;5074867;28;20068;-72
2022/07/05 10:43:43;;;;;;;8.50;1.90;;;34.50;32.70;;;;;;5075027;28;20146;-73
2022/07/05 10:46:09;;;;;;;8.10;2.78;;;34.40;33.20;;;;;;5074118;28;20074;-73
2022/07/05 10:48:35;;;;;;;8.80;2.40;;;34.40;32.30;;;;;;5074985;28;20025;-72
2022/07/05 10:51:14;;;;;;;14.65;2.72;;;34.40;32.40;;;;;;5075313;28;20067;-71
2022/07/05 10:53:39;;;;;;;11.23;2.50;;;34.40;32.20;;;;;;5075119;28;20028;-72
2022/07/05 10:56:05;;;;;;;14.45;5.70;;;34.50;32.30;;;;;;5074672;28;20021;-72
2022/07/05 10:58:41;;;;;;;12.60;4.30;;;34.50;32.70;;;;;;5074422;28;20127;-73
2022/07/05 11:01:31;;;;;;;25.50;3.72;;;34.60;32.70;;;;;;5056364;28;20033;-73
2022/07/05 11:04:04;;;;;;;15.82;2.40;;;34.60;32.80;;;;;;5064581;28;20040;-71
2022/07/05 11:06:38;;;;;;;15.85;2.85;;;34.70;33.00;;;;;;5074391;28;20013;-73
2022/07/05 11:09:05;;;;;;;8.45;2.05;;;34.70;32.80;;;;;;5074470;28;20116;-72
2022/07/05 11:11:42;;;;;;;13.68;3.08;;;34.80;32.30;;;;;;5056942;28;20039;-73
2022/07/05 11:14:24;;;;;;;8.63;2.53;;;34.80;32.70;;;;;;5074692;28;20380;-73
2022/07/05 11:17:13;;;;;;;11.50;2.78;;;34.90;32.50;;;;;;5074738;28;20024;-73
2022/07/05 11:20:06;;;;;;;8.95;2.67;;;34.90;32.80;;;;;;5074512;28;20032;-71
2022/07/05 11:22:34;;;;;;;9.75;2.38;;;34.90;32.50;;;;;;5056498;28;20048;-72
2022/07/05 11:25:00;;;;;;;12.60;3.08;;;35.00;32.40;;;;;;5074439;28;20013;-71
2022/07/05 11:27:26;;;;;;;14.80;3.08;;;35.10;32.00;;;;;;5074764;28;20032;-72
2022/07/05 11:29:54;;;;;;;16.83;3.20;;;35.20;31.80;;;;;;5056534;28;20023;-73
2022/07/05 11:32:30;;;;;;;19.98;2.90;;;35.30;31.40;;;;;;5074580;28;20029;-73
2022/07/05 11:35:12;;;;;;;11.63;3.55;;;35.40;31.30;;;;;;5056467;28;20056;-73
2022/07/05 11:38:03;;;;;;;21.50;3.90;;;35.50;31.50;;;;;;5074797;28;20103;-72
2022/07/05 11:40:34;;;;;;;11.50;4.03;;;35.60;32.00;;;;;;5076811;28;20082;-72
2022/07/05 11:43:02;;;;;;;15.13;3.92;;;35.60;32.30;;;;;;5083209;28;20053;-73
2022/07/05 11:45:30;;;;;;;12.65;3.38;;;35.60;32.80;;;;;;5081603;28;20017;-72
2022/07/05 11:47:58;;;;;;;15.02;2.65;;;35.70;33.30;;;;;;5056213;28;20488;-71
2022/07/05 11:50:33;;;;;;;23.33;3.47;;;35.80;34.20;;;;;;5074164;28;20021;-71
2022/07/05 11:53:00;;;;;;;8.38;2.22;;;35.90;37.70;;;;;;5074141;28;20016;-72
2022/07/05 11:55:27;;;;;;;17.83;4.45;;;35.80;39.30;;;;;;5074037;28;20020;-72
2022/07/05 11:57:55;;;;;;;32.45;4.38;;;35.90;40.50;;;;;;5072786;28;20028;-71
2022/07/05 12:00:28;;;;;;;29.50;3.80;;;35.90;41.10;;;;;;5055725;28;20070;-71
2022/07/05 12:02:54;;;;;;;17.80;2.40;;;35.90;41.80;;;;;;5073848;28;20123;-73
2022/07/05 12:05:20;;;;;;;12.70;2.00;;;35.90;42.00;;;;;;5073820;28;20124;-72
2022/07/05 12:07:51;;;;;;;8.82;2.33;;;35.90;42.30;;;;;;5056184;28;20086;-72
2022/07/05 12:13:07;;;;;;;26.33;2.90;;;35.90;43.20;;;;;;5073274;28;20032;-72
2022/07/05 12:15:33;;;;;;;7.70;1.75;;;35.90;43.60;;;;;;5072956;28;20027;-72
2022/07/05 12:18:04;;;;;;;9.55;1.55;;;35.90;43.60;;;;;;5073120;28;20496;-72
2022/07/05 12:20:33;;;;;;;34.70;3.63;;;35.90;43.80;;;;;;5073061;28;20071;-73
2022/07/05 12:23:00;;;;;;;27.35;2.92;;;35.90;44.80;;;;;;5055084;28;20122;-72
2022/07/05 12:25:27;;;;;;;10.10;2.03;;;35.90;44.00;;;;;;5055474;28;20534;-71
2022/07/05 12:27:55;;;;;;;9.73;1.90;;;35.90;44.50;;;;;;5073265;28;20070;-72
2022/07/05 12:30:21;;;;;;;11.27;2.05;;;35.90;44.70;;;;;;5055433;28;20033;-71
2022/07/05 12:33:00;;;;;;;9.02;2.03;;;36.00;45.00;;;;;;5073155;28;20028;-71
2022/07/05 12:35:39;;;;;;;8.73;1.73;;;35.90;45.00;;;;;;5054832;28;20025;-72
2022/07/05 12:38:20;;;;;;;11.65;2.15;;;35.80;45.30;;;;;;5073147;28;20021;-71
2022/07/05 12:40:57;;;;;;;5.82;1.75;;;35.80;45.10;;;;;;5054977;28;20161;-72
2022/07/05 12:43:22;;;;;;;7.55;1.92;;;35.80;45.50;;;;;;5072966;28;20105;-73
2022/07/05 12:46:03;;;;;;;10.75;2.03;;;35.80;45.80;;;;;;5073036;28;20078;-72
2022/07/05 12:48:33;;;;;;;10.23;2.40;;;35.80;45.70;;;;;;5073186;28;20032;-72
2022/07/05 12:50:59;;;;;;;8.48;2.13;;;35.90;45.70;;;;;;5072834;28;20024;-71
2022/07/05 12:58:59;;;;;;;15.10;2.10;;;35.90;45.30;;;;;;5072859;28;20064;-72
2022/07/05 13:01:34;;;;;;;11.73;1.80;;;35.90;45.00;;;;;;5072865;28;20032;-72
2022/07/05 13:04:11;;;;;;;8.68;1.88;;;35.90;45.20;;;;;;5072335;28;20414;-72
2022/07/05 13:06:40;;;;;;;7.68;2.08;;;35.80;44.20;;;;;;5072536;28;20028;-72
2022/07/05 13:09:05;;;;;;;7.60;1.50;;;35.70;43.50;;;;;;5073708;28;20025;-72
2022/07/05 13:11:32;;;;;;;11.13;1.88;;;35.70;42.30;;;;;;5058743;28;20020;-72